createdAt,value
2022-09-28T00:06:53.936Z,98616.03
2022-09-28T00:28:36.984Z,98595.16
2022-09-28T00:50:26.238Z,98570.52
2022-09-28T01:12:09.932Z,98560.77
2022-09-28T01:34:00.256Z,98557.29
2022-09-28T01:55:45.876Z,98549.05
2022-09-28T02:17:29.064Z,98548.53
2022-09-28T02:39:16.316Z,98547.73
2022-09-28T03:01:15.199Z,98546.13
2022-09-28T03:23:23.204Z,98551.72
2022-09-28T03:45:01.676Z,98550.66
2022-09-28T04:06:45.371Z,98543.27
2022-09-28T04:28:47.258Z,98539.22
2022-09-28T04:50:30.762Z,98532.90
2022-09-28T05:12:29.076Z,98534.85
2022-09-28T05:34:12.528Z,98533.66
2022-09-28T05:55:59.256Z,98522.93
2022-09-28T06:17:43.281Z,98516.09
2022-09-28T06:39:58.533Z,98519.95
2022-09-28T07:01:41.973Z,98493.98
2022-09-28T07:23:49.595Z,98483.64
2022-09-28T07:45:39.388Z,98491.90
2022-09-28T08:07:25.069Z,98482.46
2022-09-28T08:29:16.330Z,98481.98
2022-09-28T08:51:14.227Z,98460.91
2022-09-28T09:13:30.247Z,98442.75
2022-09-28T09:35:53.353Z,98418.17
2022-09-28T09:58:03.053Z,98398.45
2022-09-28T10:19:59.195Z,98391.59
2022-09-28T10:42:03.716Z,98411.77
2022-09-28T11:03:54.959Z,98437.31
2022-09-28T11:25:39.095Z,98427.55
2022-09-28T11:47:54.961Z,98407.54
2022-09-28T12:09:45.477Z,98411.23
2022-09-28T12:31:38.588Z,98396.95
2022-09-28T12:53:38.936Z,98380.39
2022-09-28T13:15:41.066Z,98347.45
2022-09-28T13:37:25.917Z,98346.67
2022-09-28T13:59:18.751Z,98347.21
2022-09-28T14:21:34.596Z,98337.90
2022-09-28T14:43:26.201Z,98325.02
2022-09-28T15:05:16.300Z,98311.09
2022-09-28T15:26:59.917Z,98306.10
2022-09-28T15:48:51.650Z,98322.72
2022-09-28T16:10:36.993Z,98349.48
2022-09-28T16:32:37.719Z,98369.02
2022-09-28T16:54:41.557Z,98380.11
2022-09-28T17:16:57.338Z,98401.17
2022-09-28T17:38:31.903Z,98427.52
2022-09-28T18:00:17.089Z,98447.14
2022-09-28T18:22:01.208Z,98480.15
2022-09-28T18:43:49.166Z,98514.42
2022-09-28T19:05:34.441Z,98533.48
2022-09-28T19:27:17.881Z,98547.25
2022-09-28T19:49:02.593Z,98556.64
2022-09-28T20:10:51.782Z,98584.33
2022-09-28T20:32:35.090Z,98615.73
2022-09-28T20:54:18.144Z,98642.39
2022-09-28T21:16:02.874Z,98678.91
2022-09-28T21:37:45.666Z,98696.81
2022-09-28T21:59:28.708Z,98720.42
2022-09-28T22:21:14.297Z,98734.74
2022-09-28T22:42:57.359Z,98738.46
2022-09-28T23:04:40.506Z,98751.64
2022-09-28T23:26:26.396Z,98759.70
2022-09-28T23:48:09.414Z,98761.27
